createdAt,value
2023-05-22T00:04:23.389Z,96704.94
2023-05-22T00:09:28.731Z,96709.31
2023-05-22T00:14:30.474Z,96696.50
2023-05-22T00:19:33.124Z,96702.38
2023-05-22T00:24:35.875Z,96696.50
2023-05-22T00:29:37.704Z,96692.69
2023-05-22T00:34:39.534Z,96693.69
2023-05-22T00:39:41.331Z,96700.28
2023-05-22T00:44:43.280Z,96703.16
2023-05-22T00:49:46.103Z,96699.94
2023-05-22T00:54:50.381Z,96696.41
2023-05-22T00:59:52.312Z,96700.47
2023-05-22T01:04:58.074Z,96697.66
2023-05-22T01:09:59.819Z,96707.97
2023-05-22T01:15:21.916Z,96699.56
2023-05-22T01:20:33.467Z,96712.06
2023-05-22T01:25:35.218Z,96708.28
2023-05-22T01:30:54.221Z,96717.31
2023-05-22T01:35:58.305Z,96716.19
2023-05-22T01:41:01.530Z,96720.84
2023-05-22T01:46:03.982Z,96724.34
2023-05-22T01:51:46.785Z,96723.41
2023-05-22T01:56:56.975Z,96719.44
2023-05-22T02:02:05.002Z,96715.44
2023-05-22T02:07:12.321Z,96720.84
2023-05-22T02:12:15.091Z,96720.97
2023-05-22T02:17:21.942Z,96728.31
2023-05-22T02:22:23.867Z,96724.53
2023-05-22T02:27:25.685Z,96721.50
2023-05-22T02:32:29.734Z,96713.06
2023-05-22T02:37:31.726Z,96709.38
2023-05-22T02:42:34.472Z,96706.94
2023-05-22T02:47:36.739Z,96704.69
2023-05-22T02:52:39.464Z,96709.75
2023-05-22T02:57:41.269Z,96716.81
2023-05-22T03:02:43.106Z,96726.13
2023-05-22T03:07:48.113Z,96733.19
2023-05-22T03:12:54.068Z,96736.13
2023-05-22T03:17:56.490Z,96733.66
2023-05-22T03:22:58.485Z,96738.69
2023-05-22T03:28:00.943Z,96748.53
2023-05-22T03:33:06.005Z,96742.78
2023-05-22T03:38:07.849Z,96749.19
2023-05-22T03:43:09.875Z,96745.47
2023-05-22T03:48:12.655Z,96737.88
2023-05-22T03:53:14.664Z,96729.75
2023-05-22T03:58:16.858Z,96748.03
2023-05-22T04:03:19.851Z,96750.09
2023-05-22T04:08:22.567Z,96748.22
2023-05-22T04:13:24.325Z,96744.41
2023-05-22T04:18:26.073Z,96741.91
2023-05-22T04:23:27.878Z,96745.25
2023-05-22T04:28:30.375Z,96744.38
2023-05-22T04:33:34.312Z,96746.59
2023-05-22T04:38:37.250Z,96756.06
2023-05-22T04:43:40.034Z,96760.97
2023-05-22T04:48:42.011Z,96757.09
2023-05-22T04:53:44.124Z,96756.28
2023-05-22T04:58:48.736Z,96751.63
2023-05-22T05:03:50.905Z,96753.47
2023-05-22T05:08:53.414Z,96751.84
2023-05-22T05:13:55.175Z,96751.56
2023-05-22T05:18:58.355Z,96748.97
2023-05-22T05:24:00.388Z,96749.69
2023-05-22T05:29:02.613Z,96747.16
2023-05-22T05:34:13.473Z,96752.72
2023-05-22T05:39:32.882Z,96749.97
2023-05-22T05:44:38.188Z,96744.84
2023-05-22T05:49:41.960Z,96748.59
2023-05-22T05:54:47.428Z,96748.22
2023-05-22T05:59:53.607Z,96755.13
2023-05-22T06:05:19.097Z,96750.19
2023-05-22T06:10:23.849Z,96757.03
2023-05-22T06:15:36.256Z,96759.00
2023-05-22T06:20:39.473Z,96757.06
2023-05-22T06:25:42.193Z,96753.63
2023-05-22T06:30:44.066Z,96754.78
2023-05-22T06:35:50.716Z,96756.09
2023-05-22T06:40:52.964Z,96758.84
2023-05-22T06:45:58.352Z,96757.06
2023-05-22T06:51:24.550Z,96767.31
2023-05-22T06:56:33.072Z,96767.78
2023-05-22T07:01:41.502Z,96766.31
2023-05-22T07:06:48.697Z,96776.09
2023-05-22T07:11:50.904Z,96779.19
2023-05-22T07:16:53.096Z,96793.34
2023-05-22T07:22:01.956Z,96784.88
2023-05-22T07:27:05.514Z,96778.94
2023-05-22T07:32:08.629Z,96776.00
2023-05-22T07:37:13.179Z,96781.66
2023-05-22T07:42:17.376Z,96786.88
2023-05-22T07:47:26.487Z,96780.94
2023-05-22T07:52:29.021Z,96772.25
2023-05-22T07:57:31.079Z,96767.59
2023-05-22T08:02:39.101Z,96765.53
2023-05-22T08:07:41.480Z,96776.84
2023-05-22T08:12:43.557Z,96766.13
2023-05-22T08:17:45.300Z,96760.16
2023-05-22T08:22:47.414Z,96769.81
2023-05-22T08:27:49.456Z,96770.69
2023-05-22T08:32:51.254Z,96771.31
2023-05-22T08:37:53.148Z,96770.69
2023-05-22T08:42:57.440Z,96775.63
2023-05-22T08:48:00.058Z,96767.78
2023-05-22T08:53:03.245Z,96765.69
2023-05-22T08:58:05.649Z,96763.03
2023-05-22T09:03:10.255Z,96778.81
2023-05-22T09:08:19.745Z,96765.03
2023-05-22T09:13:27.260Z,96774.06
2023-05-22T09:18:32.255Z,96769.09
2023-05-22T09:23:34.721Z,96764.03
2023-05-22T09:28:37.738Z,96774.22
2023-05-22T09:33:39.507Z,96772.00
2023-05-22T09:38:41.393Z,96774.75
2023-05-22T09:43:50.853Z,96764.03
2023-05-22T09:48:53.024Z,96770.03
2023-05-22T09:54:03.367Z,96779.16
2023-05-22T09:59:09.272Z,96775.28
2023-05-22T10:04:14.317Z,96769.50
2023-05-22T10:09:19.631Z,96770.66
2023-05-22T10:14:22.402Z,96758.34
2023-05-22T10:19:27.401Z,96762.66
2023-05-22T10:24:29.993Z,96752.72
2023-05-22T10:29:36.608Z,96749.19
2023-05-22T10:34:53.756Z,96749.53
2023-05-22T10:40:08.988Z,96745.81
2023-05-22T10:45:11.300Z,96748.03
2023-05-22T10:50:13.345Z,96744.66
2023-05-22T10:55:15.586Z,96735.91
2023-05-22T11:00:19.265Z,96728.84
2023-05-22T11:05:25.930Z,96721.25
2023-05-22T11:10:47.827Z,96728.41
2023-05-22T11:15:49.581Z,96725.06
2023-05-22T11:20:53.722Z,96714.38
2023-05-22T11:25:55.726Z,96718.50
2023-05-22T11:30:57.831Z,96725.63
2023-05-22T11:35:59.948Z,96718.63
2023-05-22T11:41:01.736Z,96707.78
2023-05-22T11:46:07.883Z,96700.66
2023-05-22T11:51:10.527Z,96702.47
2023-05-22T11:56:12.290Z,96699.47
2023-05-22T12:01:14.457Z,96701.66
2023-05-22T12:06:17.827Z,96692.84
2023-05-22T12:11:19.760Z,96693.00
2023-05-22T12:16:22.732Z,96694.69
2023-05-22T12:21:26.795Z,96685.50
2023-05-22T12:26:28.568Z,96684.38
2023-05-22T12:31:38.317Z,96674.88
2023-05-22T12:36:41.671Z,96678.13
2023-05-22T12:41:44.359Z,96674.19
2023-05-22T12:46:46.286Z,96671.94
2023-05-22T12:51:48.117Z,96671.53
2023-05-22T12:56:49.864Z,96658.78
2023-05-22T13:01:51.893Z,96670.50
2023-05-22T13:06:53.851Z,96656.41
2023-05-22T13:11:55.743Z,96649.56
2023-05-22T13:16:57.833Z,96642.00
2023-05-22T13:21:59.926Z,96644.47
2023-05-22T13:27:01.864Z,96632.38
2023-05-22T13:32:04.316Z,96637.22
2023-05-22T13:37:06.651Z,96636.88
2023-05-22T13:42:08.492Z,96636.56
2023-05-22T13:47:11.173Z,96630.63
2023-05-22T13:52:13.439Z,96627.69
2023-05-22T13:57:17.585Z,96622.94
2023-05-22T14:02:20.801Z,96616.59
2023-05-22T14:07:22.543Z,96618.63
2023-05-22T14:12:24.380Z,96613.84
2023-05-22T14:17:26.479Z,96607.88
2023-05-22T14:22:30.629Z,96599.91
2023-05-22T14:27:34.671Z,96595.94
2023-05-22T14:32:36.457Z,96603.63
2023-05-22T14:37:41.276Z,96604.38
2023-05-22T14:42:43.102Z,96598.81
2023-05-22T14:47:45.306Z,96591.19
2023-05-22T14:52:48.412Z,96583.91
2023-05-22T14:57:50.284Z,96581.50
2023-05-22T15:02:52.253Z,96576.69
2023-05-22T15:07:58.658Z,96576.69
2023-05-22T15:13:00.601Z,96580.72
2023-05-22T15:18:04.714Z,96575.13
2023-05-22T15:23:06.807Z,96575.94
2023-05-22T15:28:08.600Z,96576.72
2023-05-22T15:33:11.613Z,96579.94
2023-05-22T15:38:15.413Z,96581.53
2023-05-22T15:43:17.544Z,96587.19
2023-05-22T15:48:19.198Z,96587.97
2023-05-22T15:53:21.970Z,96578.34
2023-05-22T15:58:26.432Z,96592.41
2023-05-22T16:03:28.276Z,96582.31
2023-05-22T16:08:30.148Z,96577.50
2023-05-22T16:13:33.313Z,96579.97
2023-05-22T16:18:35.659Z,96577.13
2023-05-22T16:23:37.372Z,96579.94
2023-05-22T16:28:39.090Z,96567.03
2023-05-22T16:33:41.792Z,96558.19
2023-05-22T16:38:43.608Z,96563.06
2023-05-22T16:43:45.469Z,96566.22
2023-05-22T16:48:47.310Z,96562.56
2023-05-22T16:53:50.802Z,96566.59
2023-05-22T16:58:52.617Z,96555.75
2023-05-22T17:03:54.752Z,96563.00
2023-05-22T17:08:56.594Z,96569.41
2023-05-22T17:13:58.311Z,96574.63
2023-05-22T17:19:00.415Z,96568.50
2023-05-22T17:24:02.168Z,96570.06
2023-05-22T17:29:03.920Z,96569.97
2023-05-22T17:34:07.814Z,96574.69
2023-05-22T17:39:09.734Z,96571.41
2023-05-22T17:44:11.802Z,96574.34
2023-05-22T17:49:13.480Z,96578.97
2023-05-22T17:54:16.037Z,96574.06
2023-05-22T17:59:18.226Z,96568.53
2023-05-22T18:04:20.497Z,96575.84
2023-05-22T18:09:22.197Z,96582.97
2023-05-22T18:14:24.005Z,96579.47
2023-05-22T18:19:26.117Z,96585.19
2023-05-22T18:24:28.472Z,96584.16
2023-05-22T18:29:30.627Z,96582.81
2023-05-22T18:34:32.595Z,96594.97
2023-05-22T18:39:34.288Z,96600.06
2023-05-22T18:44:36.264Z,96603.31
2023-05-22T18:49:38.077Z,96609.81
2023-05-22T18:54:39.908Z,96607.22
2023-05-22T18:59:43.315Z,96612.59
2023-05-22T19:04:45.624Z,96621.66
2023-05-22T19:09:47.404Z,96631.31
2023-05-22T19:14:49.636Z,96639.94
2023-05-22T19:19:51.406Z,96645.63
2023-05-22T19:24:53.145Z,96647.59
2023-05-22T19:29:55.210Z,96661.72
2023-05-22T19:34:57.660Z,96666.16
2023-05-22T19:39:59.385Z,96664.63
2023-05-22T19:45:02.586Z,96669.38
2023-05-22T19:50:04.831Z,96667.72
2023-05-22T19:55:07.006Z,96666.88
2023-05-22T20:00:10.955Z,96668.81
2023-05-22T20:05:13.478Z,96679.72
2023-05-22T20:10:16.088Z,96678.50
2023-05-22T20:15:17.790Z,96678.03
2023-05-22T20:20:20.289Z,96688.66
2023-05-22T20:25:21.990Z,96685.28
2023-05-22T20:30:24.492Z,96690.25
2023-05-22T20:35:26.473Z,96701.56
2023-05-22T20:40:29.695Z,96709.31
2023-05-22T20:45:32.904Z,96703.44
2023-05-22T20:50:36.522Z,96703.38
2023-05-22T20:55:39.590Z,96703.03
2023-05-22T21:00:42.174Z,96696.69
2023-05-22T21:05:44.030Z,96705.63
2023-05-22T21:10:45.949Z,96694.59
2023-05-22T21:15:47.637Z,96688.28
2023-05-22T21:20:50.120Z,96704.94
2023-05-22T21:25:52.033Z,96704.63
2023-05-22T21:30:54.145Z,96702.75
2023-05-22T21:35:56.097Z,96708.44
2023-05-22T21:40:57.882Z,96706.47
2023-05-22T21:46:00.236Z,96701.31
2023-05-22T21:51:01.950Z,96707.31
2023-05-22T21:56:03.684Z,96709.06
2023-05-22T22:01:05.980Z,96701.50
2023-05-22T22:06:08.434Z,96699.25
2023-05-22T22:11:10.732Z,96702.75
2023-05-22T22:16:12.493Z,96704.25
2023-05-22T22:21:15.401Z,96714.13
2023-05-22T22:26:17.879Z,96712.13
2023-05-22T22:31:19.661Z,96715.41
2023-05-22T22:36:22.803Z,96717.91
2023-05-22T22:41:24.535Z,96718.50
2023-05-22T22:46:26.566Z,96712.09
2023-05-22T22:51:30.790Z,96720.34
2023-05-22T22:56:32.730Z,96720.16
2023-05-22T23:01:34.558Z,96712.94
2023-05-22T23:06:36.289Z,96713.06
2023-05-22T23:11:38.634Z,96726.56
2023-05-22T23:16:40.898Z,96734.13
2023-05-22T23:21:45.219Z,96731.19
2023-05-22T23:26:47.193Z,96733.91
2023-05-22T23:31:50.508Z,96741.22
2023-05-22T23:36:52.423Z,96743.72
2023-05-22T23:41:55.212Z,96753.25
2023-05-22T23:46:57.348Z,96748.25
2023-05-22T23:51:59.369Z,96743.94
2023-05-22T23:57:01.162Z,96737.06
